Time;durP1;ratioP1;P1;durP2;ratioP2;P2;SDS_P1;SDS_P2;PMS_P1;PMS_P2;Temp;Humidity;BMP_temperature;BMP_pressure;BME280_temperature;BME280_humidity;BME280_pressure;Samples;Min_cycle;Max_cycle;Signal;HPM_P1;HPM_P2
2022/11/20 00:02:01;;;;;;;;;;;;;;;21.37;48.17;100669.75;5078977;28;4344;-68
2022/11/20 00:04:28;;;;;;;;;;;;;;;21.38;48.06;100665.47;5076617;28;4131;-68
2022/11/20 00:06:54;;;;;;;;;;;;;;;21.39;48.16;100664.06;5085110;28;4071;-68
2022/11/20 00:09:20;;;;;;;;;;;;;;;21.37;48.29;100655.34;5087125;28;4137;-68
2022/11/20 00:11:47;;;;;;;;;;;;;;;21.37;48.10;100644.56;5092552;28;4197;-67
2022/11/20 00:14:14;;;;;;;;;;;;;;;21.37;48.09;100646.69;5086645;28;6168;-67
2022/11/20 00:16:40;;;;;;;;;;;;;;;21.38;48.21;100654.69;5078962;28;4421;-67
2022/11/20 00:19:06;;;;;;;;;;;;;;;21.38;48.35;100648.94;5085024;28;4009;-67
2022/11/20 00:21:33;;;;;;;;;;;;;;;21.38;48.32;100651.06;5088416;28;5517;-68
2022/11/20 00:23:59;;;;;;;;;;;;;;;21.40;48.17;100656.91;5071952;28;4247;-68
2022/11/20 00:26:26;;;;;;;;;;;;;;;21.36;48.23;100657.47;5087339;28;4170;-67
2022/11/20 00:28:53;;;;;;;;;;;;;;;21.36;48.12;100656.75;5088451;28;5462;-68
2022/11/20 00:31:19;;;;;;;;;;;;;;;21.34;48.15;100643.75;5078707;28;4732;-68
2022/11/20 00:33:45;;;;;;;;;;;;;;;21.33;48.27;100639.38;5075777;28;4121;-67
2022/11/20 00:36:13;;;;;;;;;;;;;;;21.32;48.46;100643.66;5080716;28;4294;-68
2022/11/20 00:38:39;;;;;;;;;;;;;;;21.32;48.40;100652.28;5082605;28;5425;-67
2022/11/20 00:41:07;;;;;;;;;;;;;;;21.32;48.42;100658.06;5085502;28;5619;-67
2022/11/20 00:43:33;;;;;;;;;;;;;;;21.33;48.26;100648.03;5090971;28;4121;-67
2022/11/20 00:46:00;;;;;;;;;;;;;;;21.33;48.30;100658.81;5086703;28;4233;-68
2022/11/20 00:48:26;;;;;;;;;;;;;;;21.36;48.46;100656.75;5083235;28;4352;-67
2022/11/20 00:50:53;;;;;;;;;;;;;;;21.37;48.17;100646.69;5086627;28;4016;-68
2022/11/20 00:53:19;;;;;;;;;;;;;;;21.38;48.45;100659.72;5089544;28;4274;-68
2022/11/20 00:55:52;;;;;;;;;;;;;;;21.37;48.17;100653.19;5084781;28;4197;-68
2022/11/20 00:58:18;;;;;;;;;;;;;;;21.37;48.33;100658.94;5085794;28;4256;-68
2022/11/20 01:00:45;;;;;;;;;;;;;;;21.37;47.98;100658.22;5086992;28;4141;-68
2022/11/20 01:03:11;;;;;;;;;;;;;;;21.37;48.21;100658.22;5085673;28;4128;-67
2022/11/20 01:05:37;;;;;;;;;;;;;;;21.36;48.20;100645.22;5091944;28;4809;-67
2022/11/20 01:08:04;;;;;;;;;;;;;;;21.34;48.31;100643.00;5075140;28;4093;-67
2022/11/20 01:10:30;;;;;;;;;;;;;;;21.32;48.30;100655.19;5091854;28;3943;-68
2022/11/20 01:15:48;;;;;;;;;;;;;;;21.32;48.15;100637.16;5079793;28;4011;-67
2022/11/20 01:18:14;;;;;;;;;;;;;;;21.30;48.42;100642.84;5076701;28;4196;-67
2022/11/20 01:20:40;;;;;;;;;;;;;;;21.31;48.10;100642.19;5085216;28;5305;-67
2022/11/20 01:23:07;;;;;;;;;;;;;;;21.33;48.13;100641.53;5084014;28;4090;-67
2022/11/20 01:25:33;;;;;;;;;;;;;;;21.36;48.19;100633.72;5082895;28;3966;-67
2022/11/20 01:28:00;;;;;;;;;;;;;;;21.36;48.22;100633.72;5077314;28;4038;-68
2022/11/20 01:30:26;;;;;;;;;;;;;;;21.37;48.46;100638.06;5084830;28;4184;-67
2022/11/20 01:32:52;;;;;;;;;;;;;;;21.36;48.14;100640.22;5072188;28;4249;-67
2022/11/20 01:35:19;;;;;;;;;;;;;;;21.36;48.38;100645.97;5061481;28;4234;-68
2022/11/20 01:37:45;;;;;;;;;;;;;;;21.37;48.20;100640.94;5070365;28;5062;-67
2022/11/20 01:40:11;;;;;;;;;;;;;;;21.36;48.46;100639.47;5074177;28;4183;-67
2022/11/20 01:45:46;;;;;;;;;;;;;;;21.33;48.25;100642.28;5073497;28;4267;-67
2022/11/20 01:48:12;;;;;;;;;;;;;;;21.31;48.34;100633.53;5062310;28;4170;-67
2022/11/20 01:50:39;;;;;;;;;;;;;;;21.33;48.28;100635.78;5071751;28;4087;-68
2022/11/20 01:53:06;;;;;;;;;;;;;;;21.32;48.24;100635.00;5084995;28;4248;-67
2022/11/20 01:55:33;;;;;;;;;;;;;;;21.30;48.47;100632.09;5079787;28;4059;-67
2022/11/20 01:57:59;;;;;;;;;;;;;;;21.30;48.27;100631.31;5055499;28;4156;-67
2022/11/20 02:00:26;;;;;;;;;;;;;;;21.32;48.35;100622.75;5063757;28;4224;-67
2022/11/20 02:02:56;;;;;;;;;;;;;;;21.32;48.48;100629.25;5084778;28;4555;-67
2022/11/20 02:05:24;;;;;;;;;;;;;;;21.31;48.46;100627.78;5089015;28;4295;-67
2022/11/20 02:07:50;;;;;;;;;;;;;;;21.33;48.45;100618.50;5065410;28;4125;-68
2022/11/20 02:10:16;;;;;;;;;;;;;;;21.36;48.20;100622.91;5089665;28;4179;-67
2022/11/20 02:15:28;;;;;;;;;;;;;;;21.34;48.26;100617.81;5086756;28;4149;-67
2022/11/20 02:17:55;;;;;;;;;;;;;;;21.36;48.12;100604.91;5077781;27;4182;-67
2022/11/20 02:20:22;;;;;;;;;;;;;;;21.34;48.18;100609.19;5071442;28;4221;-67
2022/11/20 02:22:50;;;;;;;;;;;;;;;21.32;48.48;100606.22;5083701;28;4117;-67
2022/11/20 02:25:17;;;;;;;;;;;;;;;21.32;48.25;100606.22;5083742;28;4148;-68
2022/11/20 02:27:43;;;;;;;;;;;;;;;21.31;48.49;100604.75;5080195;28;4008;-67
2022/11/20 02:30:10;;;;;;;;;;;;;;;21.31;48.30;100604.75;5074208;28;4107;-67
2022/11/20 02:32:38;;;;;;;;;;;;;;;21.29;48.36;100606.81;5075700;28;5339;-68
2022/11/20 02:35:19;;;;;;;;;;;;;;;21.28;48.58;100606.09;5073131;28;4517;-67
2022/11/20 02:37:50;;;;;;;;;;;;;;;21.30;48.54;100603.28;5056581;28;5225;-68
2022/11/20 02:40:16;;;;;;;;;;;;;;;21.31;48.29;100593.22;5072219;28;5401;-68
2022/11/20 02:42:42;;;;;;;;;;;;;;;21.31;48.44;100592.50;5077960;28;4026;-67
2022/11/20 02:45:09;;;;;;;;;;;;;;;21.32;48.39;100594.69;5082680;28;4178;-68
2022/11/20 02:47:35;;;;;;;;;;;;;;;21.34;48.25;100591.91;5082582;28;4085;-67
2022/11/20 02:50:02;;;;;;;;;;;;;;;21.34;48.53;100594.78;5081652;28;4128;-67
2022/11/20 02:52:28;;;;;;;;;;;;;;;21.36;48.29;100599.16;5089199;28;4072;-68
2022/11/20 02:54:55;;;;;;;;;;;;;;;21.34;48.31;100594.78;5076373;28;4253;-68
2022/11/20 02:57:21;;;;;;;;;;;;;;;21.34;48.23;100603.41;5082030;28;5086;-68
2022/11/20 02:59:47;;;;;;;;;;;;;;;21.33;48.34;100599.06;5078078;28;4353;-67
2022/11/20 03:02:14;;;;;;;;;;;;;;;21.31;48.57;100590.34;5069469;28;4140;-68
2022/11/20 03:04:40;;;;;;;;;;;;;;;21.32;48.70;100600.44;5070554;28;4109;-68
2022/11/20 03:07:08;;;;;;;;;;;;;;;21.31;48.55;100596.09;5082037;28;4180;-67
2022/11/20 03:09:34;;;;;;;;;;;;;;;21.31;48.33;100586.72;5080334;28;4021;-67
2022/11/20 03:12:01;;;;;;;;;;;;;;;21.30;48.51;100591.75;5086804;28;4141;-68
2022/11/20 03:14:27;;;;;;;;;;;;;;;21.26;48.62;100588.72;5079486;28;5370;-68
2022/11/20 03:16:53;;;;;;;;;;;;;;;21.26;48.67;100597.34;5048180;28;4120;-68
2022/11/20 03:19:20;;;;;;;;;;;;;;;21.27;48.29;100593.06;5070014;28;4363;-67
2022/11/20 03:21:47;;;;;;;;;;;;;;;21.25;48.51;100589.38;5081828;28;4529;-67
2022/11/20 03:24:13;;;;;;;;;;;;;;;21.24;48.68;100590.78;5081200;28;4173;-71
2022/11/20 03:26:39;;;;;;;;;;;;;;;21.23;48.56;100584.25;5084449;28;4197;-67
2022/11/20 03:29:06;;;;;;;;;;;;;;;21.22;48.66;100582.06;5084728;28;4116;-67
2022/11/20 03:31:33;;;;;;;;;;;;;;;21.24;48.44;100582.88;5081174;28;4178;-67
2022/11/20 03:33:59;;;;;;;;;;;;;;;21.23;48.37;100569.88;5081264;28;4944;-68
2022/11/20 03:36:26;;;;;;;;;;;;;;;21.26;48.48;100580.09;5082950;28;4135;-68
2022/11/20 03:38:52;;;;;;;;;;;;;;;21.26;48.36;100567.84;5083303;28;4143;-67
2022/11/20 03:41:19;;;;;;;;;;;;;;;21.29;48.38;100573.00;5084249;28;5297;-68
2022/11/20 03:43:49;;;;;;;;;;;;;;;21.31;48.22;100570.19;5077012;28;4171;-67
2022/11/20 03:46:15;;;;;;;;;;;;;;;21.32;48.51;100574.53;5076054;28;5251;-68
2022/11/20 03:48:42;;;;;;;;;;;;;;;21.36;48.57;100579.00;5075379;28;4156;-68
2022/11/20 03:51:22;;;;;;;;;;;;;;;21.37;48.14;100574.69;5070778;28;4148;-68
2022/11/20 03:53:48;;;;;;;;;;;;;;;21.38;48.17;100571.16;5087749;28;4096;-67
2022/11/20 03:56:15;;;;;;;;;;;;;;;21.40;48.03;100571.25;5083683;28;4193;-67
2022/11/20 03:58:41;;;;;;;;;;;;;;;21.39;48.38;100574.78;5081143;28;4124;-68
2022/11/20 04:01:08;;;;;;;;;;;;;;;21.39;48.31;100574.78;5079378;28;4181;-68
2022/11/20 04:03:35;;;;;;;;;;;;;;;21.42;48.17;100571.34;5082474;28;4083;-68
2022/11/20 04:06:08;;;;;;;;;;;;;;;21.43;48.14;100569.19;5086009;28;4263;-68
2022/11/20 04:08:34;;;;;;;;;;;;;;;21.39;48.28;100569.75;5073392;28;4113;-68
2022/11/20 04:11:15;;;;;;;;;;;;;;;21.41;48.42;100572.00;5076900;28;4252;-67
2022/11/20 04:13:42;;;;;;;;;;;;;;;21.41;48.45;100572.00;5085725;28;4090;-67
2022/11/20 04:16:08;;;;;;;;;;;;;;;21.38;48.29;100573.31;5078698;28;4017;-67
2022/11/20 04:18:35;;;;;;;;;;;;;;;21.38;48.20;100564.66;5067727;28;4162;-68
2022/11/20 04:21:01;;;;;;;;;;;;;;;21.38;48.36;100567.53;5077492;28;4163;-67
2022/11/20 04:23:28;;;;;;;;;;;;;;;21.37;48.16;100563.19;5086748;28;4513;-67
2022/11/20 04:25:54;;;;;;;;;;;;;;;21.36;48.28;100558.81;5092747;28;5238;-67
2022/11/20 04:28:20;;;;;;;;;;;;;;;21.37;48.16;100563.19;5090085;28;4116;-68
2022/11/20 04:30:47;;;;;;;;;;;;;;;21.39;48.05;100561.09;5065930;28;4001;-67
2022/11/20 04:33:13;;;;;;;;;;;;;;;21.37;48.04;100558.16;5076385;28;4093;-69
2022/11/20 04:35:39;;;;;;;;;;;;;;;21.36;48.38;100555.94;5080576;28;4034;-68
2022/11/20 04:38:06;;;;;;;;;;;;;;;21.36;48.13;100558.81;5087447;28;4095;-68
2022/11/20 04:40:32;;;;;;;;;;;;;;;21.33;48.11;100567.38;5083503;28;4161;-67
2022/11/20 04:42:58;;;;;;;;;;;;;;;21.34;48.39;100565.25;5082169;28;5092;-68
2022/11/20 04:45:25;;;;;;;;;;;;;;;21.34;48.36;100568.13;5068074;28;4119;-67
2022/11/20 04:47:51;;;;;;;;;;;;;;;21.33;48.19;100567.38;5086555;28;4137;-67
2022/11/20 04:50:17;;;;;;;;;;;;;;;21.37;48.32;100572.53;5092411;28;4109;-68
2022/11/20 04:52:44;;;;;;;;;;;;;;;21.40;47.97;100558.97;5093855;28;3989;-68
2022/11/20 04:55:10;;;;;;;;;;;;;;;21.40;48.46;100561.88;5088756;28;4124;-67
2022/11/20 04:57:36;;;;;;;;;;;;;;;21.42;48.02;100559.09;5074933;28;4315;-68
2022/11/20 05:00:03;;;;;;;;;;;;;;;21.42;48.10;100561.97;5072130;28;5230;-67
2022/11/20 05:02:30;;;;;;;;;;;;;;;21.43;48.13;100563.44;5078474;28;4112;-68
2022/11/20 05:04:56;;;;;;;;;;;;;;;21.43;48.23;100554.78;5078355;28;4062;-68
2022/11/20 05:07:23;;;;;;;;;;;;;;;21.43;48.05;100551.91;5066379;28;4852;-68
2022/11/20 05:09:49;;;;;;;;;;;;;;;21.43;48.10;100549.03;5080024;28;4158;-68
2022/11/20 05:12:16;;;;;;;;;;;;;;;21.44;47.94;100541.84;5084012;28;4302;-68
2022/11/20 05:14:42;;;;;;;;;;;;;;;21.42;48.01;100541.81;5069207;28;5228;-68
2022/11/20 05:17:11;;;;;;;;;;;;;;;21.42;47.85;100539.66;5063092;28;5192;-67
2022/11/20 05:19:38;;;;;;;;;;;;;;;21.42;48.32;100530.28;5070172;28;5065;-68
2022/11/20 05:22:04;;;;;;;;;;;;;;;21.43;47.91;100534.63;5079002;28;4072;-67
2022/11/20 05:24:30;;;;;;;;;;;;;;;21.42;47.96;100528.13;5077398;28;4134;-68
2022/11/20 05:26:57;;;;;;;;;;;;;;;21.40;48.09;100533.06;5076105;28;4249;-68
2022/11/20 05:29:23;;;;;;;;;;;;;;;21.43;48.22;100531.75;5061645;28;4183;-67
2022/11/20 05:31:49;;;;;;;;;;;;;;;21.42;48.04;100527.41;5068507;28;4079;-68
2022/11/20 05:34:16;;;;;;;;;;;;;;;21.41;48.25;100523.03;5085701;28;5234;-68
2022/11/20 05:36:42;;;;;;;;;;;;;;;21.42;47.92;100527.41;5075002;28;4165;-68
2022/11/20 05:39:09;;;;;;;;;;;;;;;21.43;47.83;100531.75;5077633;28;4875;-68
2022/11/20 05:41:35;;;;;;;;;;;;;;;21.43;48.01;100517.34;5073678;28;4077;-68
2022/11/20 05:44:02;;;;;;;;;;;;;;;21.45;47.95;100520.31;5077965;28;4132;-68
2022/11/20 05:46:28;;;;;;;;;;;;;;;21.42;48.18;100515.88;5078132;28;4181;-67
2022/11/20 05:48:55;;;;;;;;;;;;;;;21.45;47.95;100514.53;5071363;28;4190;-68
2022/11/20 05:51:21;;;;;;;;;;;;;;;21.43;48.05;100512.31;5078586;28;5194;-67
2022/11/20 05:53:48;;;;;;;;;;;;;;;21.42;47.95;100513.00;5084580;28;4191;-67
2022/11/20 05:56:15;;;;;;;;;;;;;;;21.43;47.88;100514.47;5082999;28;4273;-67
2022/11/20 05:58:41;;;;;;;;;;;;;;;21.42;47.93;100510.13;5077207;28;4206;-68
2022/11/20 06:01:09;;;;;;;;;;;;;;;21.42;48.14;100510.13;5074877;28;4293;-67
2022/11/20 06:03:35;;;;;;;;;;;;;;;21.44;48.24;100513.06;5074041;28;4190;-67
2022/11/20 06:06:01;;;;;;;;;;;;;;;21.45;48.22;100515.28;5076894;28;4531;-67
2022/11/20 06:08:28;;;;;;;;;;;;;;;21.45;48.07;100515.28;5069781;28;4833;-67
2022/11/20 06:10:54;;;;;;;;;;;;;;;21.49;48.03;100503.19;5085959;28;4325;-67
2022/11/20 06:13:20;;;;;;;;;;;;;;;21.48;48.25;100508.19;5077907;28;5449;-67
2022/11/20 06:15:50;;;;;;;;;;;;;;;21.47;47.80;100500.22;5068405;28;5372;-68
2022/11/20 06:18:16;;;;;;;;;;;;;;;21.47;47.88;100503.09;5076719;28;4184;-68
2022/11/20 06:20:43;;;;;;;;;;;;;;;21.47;47.97;100500.94;5081879;28;4146;-67
2022/11/20 06:23:09;;;;;;;;;;;;;;;21.47;48.11;100517.50;5081373;28;4326;-67
2022/11/20 06:25:38;;;;;;;;;;;;;;;21.48;48.00;100510.31;5073108;28;5383;-67
2022/11/20 06:28:05;;;;;;;;;;;;;;;21.49;48.12;100514.69;5087144;28;4098;-67
2022/11/20 06:30:31;;;;;;;;;;;;;;;21.47;47.91;100518.22;5077648;28;5125;-68
2022/11/20 06:32:57;;;;;;;;;;;;;;;21.47;47.80;100508.88;5082407;28;4079;-67
2022/11/20 06:35:24;;;;;;;;;;;;;;;21.48;47.82;100524.72;5081050;28;4542;-67
2022/11/20 06:37:50;;;;;;;;;;;;;;;21.45;47.92;100508.78;5074800;28;4206;-67
2022/11/20 06:40:16;;;;;;;;;;;;;;;21.45;47.75;100518.16;5087591;28;4138;-68
2022/11/20 06:42:43;;;;;;;;;;;;;;;21.46;48.06;100516.00;5087470;28;5123;-67
2022/11/20 06:45:09;;;;;;;;;;;;;;;21.47;47.82;100509.59;5080189;28;4068;-68
2022/11/20 06:47:36;;;;;;;;;;;;;;;21.45;47.97;100514.53;5082403;28;5287;-68
2022/11/20 06:50:02;;;;;;;;;;;;;;;21.48;47.80;100513.22;5094400;28;4150;-67
2022/11/20 06:52:28;;;;;;;;;;;;;;;21.47;47.90;100500.22;5092484;28;5295;-68
2022/11/20 06:54:55;;;;;;;;;;;;;;;21.45;48.14;100503.03;5085135;28;4190;-68
2022/11/20 06:57:21;;;;;;;;;;;;;;;21.45;47.91;100503.03;5081818;28;4177;-68
2022/11/20 06:59:47;;;;;;;;;;;;;;;21.44;47.98;100499.41;5085357;28;5037;-67
2022/11/20 07:02:14;;;;;;;;;;;;;;;21.44;47.75;100495.78;5080372;28;4358;-67
2022/11/20 07:04:40;;;;;;;;;;;;;;;21.43;47.99;100505.81;5086816;28;3986;-67
2022/11/20 07:07:06;;;;;;;;;;;;;;;21.46;48.30;100502.38;5084573;28;4267;-67
2022/11/20 07:09:33;;;;;;;;;;;;;;;21.45;47.91;100503.75;5081584;28;5231;-67
2022/11/20 07:12:00;;;;;;;;;;;;;;;21.33;48.45;100509.78;5058077;28;4229;-69
2022/11/20 07:14:26;;;;;;;;;;;;;;;21.32;47.87;100496.78;5076324;28;4188;-67
2022/11/20 07:16:52;;;;;;;;;;;;;;;21.41;47.63;100497.09;5087323;28;5163;-68
2022/11/20 07:19:19;;;;;;;;;;;;;;;21.46;47.36;100504.50;5083152;28;5158;-67
2022/11/20 07:21:46;;;;;;;;;;;;;;;21.50;47.93;100505.38;5088068;28;4216;-67
2022/11/20 07:24:12;;;;;;;;;;;;;;;21.49;47.83;100498.16;5087180;28;4067;-61
2022/11/20 07:26:38;;;;;;;;;;;;;;;21.58;47.52;100499.19;5067482;28;4049;-61
2022/11/20 07:29:05;;;;;;;;;;;;;;;21.56;47.77;100507.75;5070053;28;4204;-62
2022/11/20 07:31:31;;;;;;;;;;;;;;;21.54;47.58;100513.44;5069354;28;5059;-61
2022/11/20 07:33:57;;;;;;;;;;;;;;;21.51;47.65;100506.13;5077196;28;4119;-62
2022/11/20 07:36:24;;;;;;;;;;;;;;;21.51;47.66;100500.38;5069698;28;4202;-61
2022/11/20 07:38:50;;;;;;;;;;;;;;;21.52;47.49;100510.47;5072177;28;4166;-61
2022/11/20 07:41:16;;;;;;;;;;;;;;;21.49;47.52;100498.16;5073725;28;4265;-61
2022/11/20 07:43:43;;;;;;;;;;;;;;;21.46;47.53;100498.72;5079519;28;5294;-61
2022/11/20 07:46:09;;;;;;;;;;;;;;;21.45;47.41;100503.03;5087497;28;5287;-62
2022/11/20 07:48:35;;;;;;;;;;;;;;;21.44;47.34;100498.66;5091564;28;4822;-62
2022/11/20 07:51:02;;;;;;;;;;;;;;;21.42;47.49;100495.72;5078836;28;4308;-61
2022/11/20 07:53:28;;;;;;;;;;;;;;;21.38;47.66;100504.19;5094858;28;4451;-61
2022/11/20 07:55:54;;;;;;;;;;;;;;;21.37;47.78;100502.69;5093578;28;4305;-61
2022/11/20 07:58:21;;;;;;;;;;;;;;;21.36;48.07;100496.19;5080127;28;4121;-61
2022/11/20 08:00:47;;;;;;;;;;;;;;;21.34;47.97;100499.00;5088647;28;4215;-61
2022/11/20 08:03:13;;;;;;;;;;;;;;;21.33;47.89;100497.53;5084605;28;4370;-62
2022/11/20 08:05:42;;;;;;;;;;;;;;;21.32;48.06;100499.66;5082953;28;4110;-62
2022/11/20 08:08:08;;;;;;;;;;;;;;;21.32;47.99;100493.91;5082836;28;4012;-62
2022/11/20 08:10:34;;;;;;;;;;;;;;;21.33;48.73;100492.50;5088031;28;4111;-61
2022/11/20 08:15:50;;;;;;;;;;;;;;;21.31;50.48;100489.53;5079312;28;4124;-61
2022/11/20 08:18:17;;;;;;;;;;;;;;;21.29;50.83;100483.72;5081212;28;5864;-61
2022/11/20 08:21:02;;;;;;;;;;;;;;;21.23;50.08;100483.47;5081098;28;4586;-61
2022/11/20 08:23:28;;;;;;;;;;;;;;;21.11;47.80;100483.03;5088512;28;5436;-59
2022/11/20 08:25:55;;;;;;;;;;;;;;;18.63;39.61;100489.78;5089365;28;5449;-61
2022/11/20 08:28:21;;;;;;;;;;;;;;;16.06;45.72;100494.91;5083255;28;4108;-60
2022/11/20 08:30:48;;;;;;;;;;;;;;;18.81;45.23;100492.81;5075545;28;4239;-61
2022/11/20 08:33:14;;;;;;;;;;;;;;;19.92;44.67;100489.09;5082426;28;4062;-60
2022/11/20 08:35:41;;;;;;;;;;;;;;;20.40;44.17;100490.38;5065428;28;4000;-58
2022/11/20 08:38:08;;;;;;;;;;;;;;;20.67;44.08;100489.31;5074168;28;4173;-62
2022/11/20 08:40:34;;;;;;;;;;;;;;;20.79;43.99;100491.91;5073529;28;4947;-61
2022/11/20 08:43:00;;;;;;;;;;;;;;;20.86;44.21;100487.88;5075864;28;4151;-62
2022/11/20 08:45:27;;;;;;;;;;;;;;;20.93;44.49;100483.81;5068423;28;5225;-61
2022/11/20 08:47:59;;;;;;;;;;;;;;;20.96;44.58;100483.91;5077005;28;4758;-61
2022/11/20 08:50:26;;;;;;;;;;;;;;;20.99;45.05;100476.84;5082435;28;4101;-62
2022/11/20 08:52:52;;;;;;;;;;;;;;;21.00;45.27;100479.03;5079117;28;4073;-61
2022/11/20 08:55:18;;;;;;;;;;;;;;;21.03;45.29;100477.00;5078141;28;4147;-61
2022/11/20 08:57:45;;;;;;;;;;;;;;;21.07;45.63;100474.25;5069382;28;3968;-61
2022/11/20 09:00:16;;;;;;;;;;;;;;;21.09;45.76;100474.31;5075589;28;4170;-62
2022/11/20 09:02:42;;;;;;;;;;;;;;;21.09;45.65;100475.06;5074783;28;4115;-61
2022/11/20 09:05:09;;;;;;;;;;;;;;;21.11;46.00;100483.03;5083616;28;4332;-61
2022/11/20 09:07:35;;;;;;;;;;;;;;;21.11;46.06;100483.03;5086202;28;4095;-61
2022/11/20 09:10:01;;;;;;;;;;;;;;;21.11;45.90;100485.91;5077111;28;4321;-62
2022/11/20 09:12:51;;;;;;;;;;;;;;;21.11;46.42;100485.91;5073508;28;5025;-62
2022/11/20 09:15:18;;;;;;;;;;;;;;;21.10;46.46;100481.56;5057762;28;4104;-61
2022/11/20 09:17:54;;;;;;;;;;;;;;;21.11;46.36;100488.78;5064668;28;3926;-61
2022/11/20 09:20:20;;;;;;;;;;;;;;;21.13;46.36;100486.00;5082772;28;4040;-62
2022/11/20 09:22:47;;;;;;;;;;;;;;;21.14;46.29;100487.47;5069968;28;4075;-62
2022/11/20 09:25:13;;;;;;;;;;;;;;;21.18;46.74;100490.50;5077620;28;4176;-61
2022/11/20 09:27:41;;;;;;;;;;;;;;;21.18;46.51;100490.50;5089459;28;5231;-61
2022/11/20 09:30:07;;;;;;;;;;;;;;;21.19;46.64;100486.22;5081788;28;4075;-62
2022/11/20 09:32:34;;;;;;;;;;;;;;;21.20;46.75;100487.69;5075642;28;4001;-62
2022/11/20 09:35:00;;;;;;;;;;;;;;;21.21;46.72;100491.31;5084287;28;4060;-61
2022/11/20 09:37:31;;;;;;;;;;;;;;;21.21;46.99;100491.31;5062468;28;4155;-62
2022/11/20 09:39:58;;;;;;;;;;;;;;;21.11;46.03;100483.03;5071505;28;4220;-53
2022/11/20 09:42:32;;;;;;;;;;;;;;;20.86;45.48;100476.34;5074618;28;4193;-58
2022/11/20 09:45:05;;;;;;;;;;;;;;;20.89;46.22;100477.94;5073491;28;4359;-57
2022/11/20 09:47:35;;;;;;;;;;;;;;;20.97;45.84;100476.75;5055749;28;4132;-58
2022/11/20 09:50:05;;;;;;;;;;;;;;;21.02;46.17;100481.25;5058458;28;4270;-57
2022/11/20 09:52:35;;;;;;;;;;;;;;;21.00;46.65;100481.19;5063292;28;5156;-57
2022/11/20 09:55:01;;;;;;;;;;;;;;;21.01;46.87;100485.56;5086617;28;4223;-58
2022/11/20 09:57:35;;;;;;;;;;;;;;;21.01;47.24;100479.78;5048915;28;4116;-59
2022/11/20 10:00:02;;;;;;;;;;;;;;;21.02;46.96;100472.63;5067341;28;4175;-59
2022/11/20 10:02:37;;;;;;;;;;;;;;;21.11;47.20;100480.16;5084669;28;5275;-58
2022/11/20 10:05:08;;;;;;;;;;;;;;;21.13;47.18;100474.47;5081810;28;4345;-57
2022/11/20 10:07:55;;;;;;;;;;;;;;;21.11;47.67;100477.28;5080195;28;4168;-57
2022/11/20 10:10:36;;;;;;;;;;;;;;;21.13;47.55;100471.59;5062702;28;4123;-57
2022/11/20 10:13:15;;;;;;;;;;;;;;;21.11;47.64;100478.00;5063199;28;4212;-57
2022/11/20 10:16:02;;;;;;;;;;;;;;;21.11;47.75;100472.25;5074557;28;4168;-57
2022/11/20 10:18:55;;;;;;;;;;;;;;;21.12;47.90;100467.25;5068018;28;5118;-57
2022/11/20 10:21:32;;;;;;;;;;;;;;;21.13;48.07;100462.97;5068230;28;4184;-58
2022/11/20 10:24:10;;;;;;;;;;;;;;;21.14;48.13;100461.56;5082028;28;4065;-58
2022/11/20 10:26:51;;;;;;;;;;;;;;;21.13;48.33;100460.09;5071210;28;4185;-58
2022/11/20 10:29:18;;;;;;;;;;;;;;;21.11;48.36;100454.97;5081272;28;4056;-57
2022/11/20 10:31:50;;;;;;;;;;;;;;;21.12;48.48;100447.09;5078946;28;4193;-57
2022/11/20 10:34:19;;;;;;;;;;;;;;;21.11;48.59;100442.72;5079572;28;5057;-57
2022/11/20 10:36:55;;;;;;;;;;;;;;;21.10;48.56;100444.16;5085099;28;4296;-57
2022/11/20 10:39:24;;;;;;;;;;;;;;;21.09;48.41;100449.16;5070873;28;4332;-58
2022/11/20 10:41:51;;;;;;;;;;;;;;;21.09;48.74;100442.66;5052135;28;4141;-56
2022/11/20 10:45:00;;;;;;;;;;;;;;;21.09;48.60;100439.78;5088033;28;4207;-58
2022/11/20 10:47:05;;;;;;;;;;;;;;;21.09;48.38;100436.91;5091702;28;4214;-57
2022/11/20 10:49:32;;;;;;;;;;;;;;;21.10;48.54;100439.13;5097159;28;4124;-57
2022/11/20 10:52:14;;;;;;;;;;;;;;;21.11;48.47;100434.09;5082233;28;4122;-57
2022/11/20 10:54:48;;;;;;;;;;;;;;;21.12;48.66;100438.47;5087063;28;4116;-58
2022/11/20 10:57:25;;;;;;;;;;;;;;;21.14;48.64;100429.88;5069488;28;4042;-58
2022/11/20 10:59:54;;;;;;;;;;;;;;;21.15;48.57;100434.25;5071605;28;4224;-55
2022/11/20 11:02:21;;;;;;;;;;;;;;;21.15;48.57;100434.25;5091822;28;4187;-57
2022/11/20 11:04:51;;;;;;;;;;;;;;;21.15;48.66;100434.25;5089857;28;4188;-57
2022/11/20 11:07:22;;;;;;;;;;;;;;;21.17;48.52;100428.56;5095933;28;5275;-57
2022/11/20 11:09:54;;;;;;;;;;;;;;;21.18;48.59;100427.16;5078983;28;5203;-57
2022/11/20 11:12:21;;;;;;;;;;;;;;;21.17;48.62;100425.69;5089613;28;4169;-58
2022/11/20 11:14:51;;;;;;;;;;;;;;;21.18;48.74;100427.16;5068244;28;4199;-58
2022/11/20 11:17:22;;;;;;;;;;;;;;;21.18;48.66;100430.03;5093162;28;4119;-59
2022/11/20 11:20:02;;;;;;;;;;;;;;;21.18;48.93;100432.19;5088755;28;4488;-57
2022/11/20 11:22:31;;;;;;;;;;;;;;;21.17;48.70;100424.97;5093827;28;4200;-58
2022/11/20 11:24:58;;;;;;;;;;;;;;;21.17;49.01;100417.06;5072454;28;5124;-57
2022/11/20 11:27:24;;;;;;;;;;;;;;;21.16;49.17;100423.47;5082520;28;4580;-58
2022/11/20 11:30:00;;;;;;;;;;;;;;;21.18;48.96;100427.16;5082806;28;4288;-59
2022/11/20 11:32:27;;;;;;;;;;;;;;;21.18;49.74;100415.63;5071002;28;4222;-58
2022/11/20 11:35:00;;;;;;;;;;;;;;;21.21;49.73;100414.31;5084328;28;4136;-58
2022/11/20 11:37:26;;;;;;;;;;;;;;;21.20;49.75;100409.22;5086743;28;4211;-58
2022/11/20 11:39:53;;;;;;;;;;;;;;;21.21;50.56;100402.81;5067156;28;5367;-58
2022/11/20 11:42:42;;;;;;;;;;;;;;;21.21;50.70;100405.69;5088275;28;4223;-59
2022/11/20 11:45:13;;;;;;;;;;;;;;;21.22;50.80;100407.16;5089297;28;4165;-58
2022/11/20 11:47:42;;;;;;;;;;;;;;;21.22;50.85;100397.78;5085506;28;4136;-59
2022/11/20 11:50:08;;;;;;;;;;;;;;;21.22;50.81;100400.66;5087586;28;4052;-59
2022/11/20 11:52:55;;;;;;;;;;;;;;;21.24;51.06;100401.47;5088837;28;3998;-58
2022/11/20 11:55:32;;;;;;;;;;;;;;;21.25;51.61;100400.06;5069963;28;4033;-58
2022/11/20 11:58:16;;;;;;;;;;;;;;;21.25;51.73;100397.16;5069813;28;5077;-59
2022/11/20 12:00:49;;;;;;;;;;;;;;;21.27;51.58;100402.28;5081018;28;4464;-58
2022/11/20 12:03:17;;;;;;;;;;;;;;;21.26;51.26;100401.53;5073317;28;4165;-58
2022/11/20 12:05:48;;;;;;;;;;;;;;;21.27;51.82;100394.38;5077416;28;4073;-59
2022/11/20 12:08:22;;;;;;;;;;;;;;;21.28;51.94;100397.97;5067462;28;4218;-59
2022/11/20 12:11:03;;;;;;;;;;;;;;;21.28;52.23;100398.72;5069910;28;4374;-58
2022/11/20 12:13:33;;;;;;;;;;;;;;;21.26;51.85;100389.28;5070089;28;4174;-58
2022/11/20 12:15:59;;;;;;;;;;;;;;;21.25;52.23;100391.41;5079028;28;4119;-58
2022/11/20 12:18:26;;;;;;;;;;;;;;;21.24;52.52;100398.59;5066681;28;5201;-60
2022/11/20 12:21:04;;;;;;;;;;;;;;;21.10;52.01;100395.22;5061586;28;4165;-58
2022/11/20 12:23:43;;;;;;;;;;;;;;;21.25;53.26;100385.66;5071319;28;4500;-59
2022/11/20 12:26:13;;;;;;;;;;;;;;;21.30;52.39;100384.41;5080427;28;4193;-58
2022/11/20 12:28:55;;;;;;;;;;;;;;;21.28;52.65;100381.47;5071143;28;4160;-58
2022/11/20 12:31:39;;;;;;;;;;;;;;;21.14;52.36;100392.44;5061451;28;4946;-57
2022/11/20 12:34:12;;;;;;;;;;;;;;;21.10;52.10;100377.94;5083300;28;5123;-57
2022/11/20 12:36:48;;;;;;;;;;;;;;;21.14;51.95;100383.81;5068502;28;4264;-59
2022/11/20 12:39:29;;;;;;;;;;;;;;;21.20;52.39;100386.19;5066755;28;4471;-58
2022/11/20 12:45:11;;;;;;;;;;;;;;;21.22;52.62;100371.88;5074524;28;4111;-58
2022/11/20 12:47:57;;;;;;;;;;;;;;;21.23;52.18;100374.06;5058964;28;4109;-57
2022/11/20 12:50:42;;;;;;;;;;;;;;;21.24;52.12;100371.94;5063665;28;4113;-54
2022/11/20 12:53:47;;;;;;;;;;;;;;;21.24;51.65;100374.81;5078465;28;4439;-57
2022/11/20 12:56:20;;;;;;;;;;;;;;;21.23;52.61;100368.31;5072458;28;5072;-58
2022/11/20 12:58:50;;;;;;;;;;;;;;;21.22;52.48;100378.34;5061675;28;4001;-57
2022/11/20 13:01:39;;;;;;;;;;;;;;;21.20;52.26;100369.66;5076885;28;4058;-57
2022/11/20 13:04:12;;;;;;;;;;;;;;;21.21;52.48;100353.84;5071955;28;4005;-59
2022/11/20 13:06:40;;;;;;;;;;;;;;;21.28;52.15;100352.66;5054272;28;3991;-64
2022/11/20 13:09:11;;;;;;;;;;;;;;;21.31;51.72;100351.31;5072977;28;4329;-64
2022/11/20 13:11:39;;;;;;;;;;;;;;;21.32;51.65;100357.81;5076117;28;4023;-64